Pagina principale
METAR-TAF:

METAR-TAF

Aeroporti :

Pécs, Ungheria

latitudine: 46-06N, longitudine: 018-14E, altezza: 201 m

Osservazione

Il bollettino è stato emesso 10 ore e 2 minuti fa, alle 17:45 UTC
Vento 4 kt da nord-ovest
Temperature 15°C
Umidità 48%
Pressione 1024 hPa
Visibilità 10 km o più
nessuna nube inferiore a 1500 m e nessun cumulonembo

METAR: LHPP 261745Z 31004KT CAVOK 15/04 Q1024

Ora: 04:47 (03:47 UTC)

Previsione

Il bollettino è stato emesso 13 ore e 32 minuti fa, alle 14:15 UTC
Previsione valida dal 26 alle 15 UTC al 26 alle 24 UTC
Vento 5 kt da ovest
Visibilità 10 km o più
nessuna nube inferiore a 1500 m e nessun cumulonembo
Temporaneamente
dal 26 alle 18 UTC al 26 alle 24 UTC
Visibilità: 5000 m
foschia

TAF: LHPP 261415Z 2615/2624 27005KT CAVOK TEMPO 2618/2624 5000 BR

Osservazioni e previsioni meteorologiche di più di 4000 aeroporti (messaggi METAR e TAF).

Le stazioni disponibili sono rappresentate dai dischi gialli e rossi sulla carta.

Puntare il mouse per vedere il nome della stazione.

Clicca sopra per visualizzare le osservazioni e previsioni meteorologiche.

Per cambiare la mappa : fare clic sui pulsanti verdi con una croce nera per ingrandire, il pulsante verde con un trattino per diminuire, o sulla freccia verde per le mappe adiacenti.


METAR-TAF: